sensor_id;sensor_type;location;lat;lon;timestamp;pressure;altitude;pressure_sealevel;temperature;humidity
5574;BME280;2563;52.242;7.956;2023-02-22T00:00:49;101784.84;;;7.62;100.00
5574;BME280;2563;52.242;7.956;2023-02-22T00:03:20;101801.03;;;7.61;100.00
5574;BME280;2563;52.242;7.956;2023-02-22T00:05:54;101807.03;;;7.60;100.00
5574;BME280;2563;52.242;7.956;2023-02-22T00:08:24;101821.53;;;7.61;100.00
5574;BME280;2563;52.242;7.956;2023-02-22T00:10:50;101836.91;;;7.61;100.00
5574;BME280;2563;52.242;7.956;2023-02-22T00:13:16;101841.19;;;7.60;100.00
5574;BME280;2563;52.242;7.956;2023-02-22T00:15:41;101860.00;;;7.59;100.00
5574;BME280;2563;52.242;7.956;2023-02-22T00:18:08;101870.25;;;7.59;100.00
5574;BME280;2563;52.242;7.956;2023-02-22T00:20:35;101885.63;;;7.59;100.00
5574;BME280;2563;52.242;7.956;2023-02-22T00:23:05;101908.66;;;7.61;100.00
5574;BME280;2563;52.242;7.956;2023-02-22T00:25:32;101919.78;;;7.60;100.00
5574;BME280;2563;52.242;7.956;2023-02-22T00:27:58;101932.59;;;7.60;100.00
5574;BME280;2563;52.242;7.956;2023-02-22T00:30:25;101943.66;;;7.57;100.00
5574;BME280;2563;52.242;7.956;2023-02-22T00:32:53;101949.66;;;7.58;100.00
5574;BME280;2563;52.242;7.956;2023-02-22T00:35:21;101963.31;;;7.57;100.00
5574;BME280;2563;52.242;7.956;2023-02-22T00:37:48;101969.28;;;7.56;100.00
5574;BME280;2563;52.242;7.956;2023-02-22T00:40:16;101986.38;;;7.57;100.00
5574;BME280;2563;52.242;7.956;2023-02-22T00:42:43;102000.91;;;7.58;100.00
5574;BME280;2563;52.242;7.956;2023-02-22T00:45:10;102016.28;;;7.58;100.00
5574;BME280;2563;52.242;7.956;2023-02-22T00:47:35;102021.41;;;7.58;100.00
5574;BME280;2563;52.242;7.956;2023-02-22T00:50:01;102045.31;;;7.57;100.00
5574;BME280;2563;52.242;7.956;2023-02-22T00:52:27;102040.19;;;7.57;100.00
5574;BME280;2563;52.242;7.956;2023-02-22T00:54:53;102053.81;;;7.54;100.00
5574;BME280;2563;52.242;7.956;2023-02-22T00:57:20;102052.13;;;7.55;100.00
5574;BME280;2563;52.242;7.956;2023-02-22T00:59:46;102057.25;;;7.55;100.00
5574;BME280;2563;52.242;7.956;2023-02-22T01:02:11;102069.19;;;7.56;100.00
5574;BME280;2563;52.242;7.956;2023-02-22T01:04:37;102073.47;;;7.55;100.00
5574;BME280;2563;52.242;7.956;2023-02-22T01:07:03;102082.88;;;7.55;100.00
5574;BME280;2563;52.242;7.956;2023-02-22T01:09:28;102088.84;;;7.55;100.00
5574;BME280;2563;52.242;7.956;2023-02-22T01:11:54;102110.19;;;7.56;100.00
5574;BME280;2563;52.242;7.956;2023-02-22T01:14:20;102113.63;;;7.55;100.00
5574;BME280;2563;52.242;7.956;2023-02-22T01:16:46;102117.00;;;7.52;100.00
5574;BME280;2563;52.242;7.956;2023-02-22T01:19:12;102129.81;;;7.52;100.00
5574;BME280;2563;52.242;7.956;2023-02-22T01:21:39;102135.78;;;7.53;100.00
5574;BME280;2563;52.242;7.956;2023-02-22T01:24:05;102139.16;;;7.52;100.00
5574;BME280;2563;52.242;7.956;2023-02-22T01:26:30;102147.72;;;7.51;100.00
5574;BME280;2563;52.242;7.956;2023-02-22T01:28:56;102158.81;;;7.50;100.00
5574;BME280;2563;52.242;7.956;2023-02-22T01:31:21;102165.66;;;7.51;100.00
5574;BME280;2563;52.242;7.956;2023-02-22T01:33:48;102180.16;;;7.52;100.00
5574;BME280;2563;52.242;7.956;2023-02-22T01:36:15;102180.13;;;7.49;100.00
5574;BME280;2563;52.242;7.956;2023-02-22T01:38:40;102192.13;;;7.50;100.00
5574;BME280;2563;52.242;7.956;2023-02-22T01:41:06;102186.06;;;7.46;100.00
5574;BME280;2563;52.242;7.956;2023-02-22T01:43:32;102188.59;;;7.44;100.00
5574;BME280;2563;52.242;7.956;2023-02-22T01:46:23;102215.13;;;7.46;100.00
5574;BME280;2563;52.242;7.956;2023-02-22T01:48:58;102214.28;;;7.48;100.00
5574;BME280;2563;52.242;7.956;2023-02-22T01:51:31;102219.41;;;7.48;100.00
5574;BME280;2563;52.242;7.956;2023-02-22T01:54:15;102228.75;;;7.44;100.00
5574;BME280;2563;52.242;7.956;2023-02-22T01:57:12;102239.81;;;7.41;100.00
5574;BME280;2563;52.242;7.956;2023-02-22T01:59:43;102254.31;;;7.41;100.00
5574;BME280;2563;52.242;7.956;2023-02-22T02:02:11;102256.84;;;7.38;100.00
5574;BME280;2563;52.242;7.956;2023-02-22T02:04:38;102263.59;;;7.34;100.00
5574;BME280;2563;52.242;7.956;2023-02-22T02:07:08;102257.56;;;7.32;100.00
5574;BME280;2563;52.242;7.956;2023-02-22T02:09:43;102265.22;;;7.29;100.00
5574;BME280;2563;52.242;7.956;2023-02-22T02:12:13;102267.75;;;7.26;100.00
5574;BME280;2563;52.242;7.956;2023-02-22T02:14:40;102270.22;;;7.23;100.00
5574;BME280;2563;52.242;7.956;2023-02-22T02:17:08;102274.41;;;7.18;100.00
5574;BME280;2563;52.242;7.956;2023-02-22T02:42:16;102277.44;;;6.51;100.00
5574;BME280;2563;52.242;7.956;2023-02-22T02:44:54;102270.31;;;6.38;100.00
5574;BME280;2563;52.242;7.956;2023-02-22T02:47:26;102263.31;;;6.28;100.00
5574;BME280;2563;52.242;7.956;2023-02-22T02:49:59;102258.78;;;6.17;100.00
5574;BME280;2563;52.242;7.956;2023-02-22T02:52:26;102253.41;;;6.05;100.00
5574;BME280;2563;52.242;7.956;2023-02-22T02:54:54;102249.00;;;5.98;100.00
5574;BME280;2563;52.242;7.956;2023-02-22T02:57:21;102240.34;;;5.93;100.00
5574;BME280;2563;52.242;7.956;2023-02-22T02:59:47;102234.31;;;5.89;100.00
5574;BME280;2563;52.242;7.956;2023-02-22T03:08:36;102200.22;;;5.51;100.00
5574;BME280;2563;52.242;7.956;2023-02-22T03:16:14;102181.97;;;5.36;100.00
5574;BME280;2563;52.242;7.956;2023-02-22T03:24:30;102163.28;;;5.02;100.00
5574;BME280;2563;52.242;7.956;2023-02-22T03:27:07;102158.19;;;5.02;100.00
5574;BME280;2563;52.242;7.956;2023-02-22T03:29:37;102160.78;;;5.03;100.00
5574;BME280;2563;52.242;7.956;2023-02-22T03:32:08;102172.84;;;5.09;100.00
5574;BME280;2563;52.242;7.956;2023-02-22T03:34:46;102169.56;;;5.15;100.00
5574;BME280;2563;52.242;7.956;2023-02-22T03:37:27;102182.63;;;5.27;100.00
5574;BME280;2563;52.242;7.956;2023-02-22T03:39:55;102192.94;;;5.31;100.00
5574;BME280;2563;52.242;7.956;2023-02-22T03:42:28;102212.00;;;5.46;100.00
5574;BME280;2563;52.242;7.956;2023-02-22T03:44:57;102220.44;;;5.42;100.00
5574;BME280;2563;52.242;7.956;2023-02-22T03:47:32;102235.03;;;5.47;100.00
5574;BME280;2563;52.242;7.956;2023-02-22T03:50:06;102241.97;;;5.53;100.00
5574;BME280;2563;52.242;7.956;2023-02-22T03:52:36;102248.81;;;5.54;100.00
5574;BME280;2563;52.242;7.956;2023-02-22T03:55:02;102273.69;;;5.61;100.00
5574;BME280;2563;52.242;7.956;2023-02-22T03:57:33;102284.94;;;5.69;100.00
5574;BME280;2563;52.242;7.956;2023-02-22T03:59:59;102295.28;;;5.74;100.00
5574;BME280;2563;52.242;7.956;2023-02-22T04:02:25;102311.56;;;5.78;100.00
5574;BME280;2563;52.242;7.956;2023-02-22T04:04:50;102319.34;;;5.82;100.00
5574;BME280;2563;52.242;7.956;2023-02-22T04:07:16;102328.75;;;5.85;100.00
5574;BME280;2563;52.242;7.956;2023-02-22T04:09:41;102342.50;;;5.90;100.00
5574;BME280;2563;52.242;7.956;2023-02-22T04:12:07;102347.69;;;5.93;100.00
5574;BME280;2563;52.242;7.956;2023-02-22T04:14:32;102357.16;;;5.95;100.00
5574;BME280;2563;52.242;7.956;2023-02-22T04:16:58;102368.41;;;6.02;100.00
5574;BME280;2563;52.242;7.956;2023-02-22T04:19:24;102364.19;;;6.04;100.00
5574;BME280;2563;52.242;7.956;2023-02-22T04:21:50;102384.69;;;6.06;100.00
5574;BME280;2563;52.242;7.956;2023-02-22T04:24:15;102390.66;;;6.06;100.00
5574;BME280;2563;52.242;7.956;2023-02-22T04:26:41;102398.47;;;6.12;100.00
5574;BME280;2563;52.242;7.956;2023-02-22T04:29:06;102406.22;;;6.15;100.00
5574;BME280;2563;52.242;7.956;2023-02-22T04:31:32;102400.44;;;6.23;100.00
5574;BME280;2563;52.242;7.956;2023-02-22T04:33:59;102424.34;;;6.26;100.00
5574;BME280;2563;52.242;7.956;2023-02-22T04:36:25;102428.63;;;6.26;100.00
5574;BME280;2563;52.242;7.956;2023-02-22T04:38:51;102428.56;;;6.23;100.00
5574;BME280;2563;52.242;7.956;2023-02-22T04:41:17;102433.66;;;6.23;100.00
5574;BME280;2563;52.242;7.956;2023-02-22T04:43:43;102443.06;;;6.24;100.00
5574;BME280;2563;52.242;7.956;2023-02-22T04:46:08;102445.63;;;6.24;100.00
5574;BME280;2563;52.242;7.956;2023-02-22T04:48:33;102445.63;;;6.24;100.00
5574;BME280;2563;52.242;7.956;2023-02-22T04:50:59;102455.91;;;6.27;100.00
5574;BME280;2563;52.242;7.956;2023-02-22T04:53:24;102461.88;;;6.26;100.00
5574;BME280;2563;52.242;7.956;2023-02-22T04:55:50;102461.88;;;6.26;100.00
5574;BME280;2563;52.242;7.956;2023-02-22T04:58:15;102465.34;;;6.29;100.00
5574;BME280;2563;52.242;7.956;2023-02-22T05:00:40;102479.03;;;6.30;100.00
5574;BME280;2563;52.242;7.956;2023-02-22T05:03:06;102467.91;;;6.29;100.00
5574;BME280;2563;52.242;7.956;2023-02-22T05:05:31;102465.44;;;6.32;100.00
5574;BME280;2563;52.242;7.956;2023-02-22T05:07:56;102452.66;;;6.34;100.00
5574;BME280;2563;52.242;7.956;2023-02-22T05:10:22;102446.69;;;6.33;100.00
5574;BME280;2563;52.242;7.956;2023-02-22T05:12:48;102453.53;;;6.34;100.00
5574;BME280;2563;52.242;7.956;2023-02-22T05:15:16;102454.47;;;6.38;100.00
5574;BME280;2563;52.242;7.956;2023-02-22T05:17:41;102452.84;;;6.40;100.00
5574;BME280;2563;52.242;7.956;2023-02-22T05:20:15;102409.34;;;6.42;100.00
5574;BME280;2563;52.242;7.956;2023-02-22T05:22:41;102403.38;;;6.41;100.00
5574;BME280;2563;52.242;7.956;2023-02-22T05:25:07;102398.28;;;6.41;100.00
5574;BME280;2563;52.242;7.956;2023-02-22T05:27:33;102400.81;;;6.41;100.00
5574;BME280;2563;52.242;7.956;2023-02-22T05:29:58;102395.69;;;6.39;100.00
5574;BME280;2563;52.242;7.956;2023-02-22T05:32:23;102396.56;;;6.40;100.00
5574;BME280;2563;52.242;7.956;2023-02-22T05:34:49;102396.56;;;6.40;100.00
5574;BME280;2563;52.242;7.956;2023-02-22T05:37:14;102386.31;;;6.40;100.00
5574;BME280;2563;52.242;7.956;2023-02-22T05:39:39;102386.31;;;6.40;100.00
5574;BME280;2563;52.242;7.956;2023-02-22T05:42:05;102378.59;;;6.38;100.00
5574;BME280;2563;52.242;7.956;2023-02-22T05:44:30;102388.84;;;6.38;100.00
5574;BME280;2563;52.242;7.956;2023-02-22T05:46:55;102383.78;;;6.42;100.00
5574;BME280;2563;52.242;7.956;2023-02-22T05:49:21;102388.03;;;6.41;100.00
5574;BME280;2563;52.242;7.956;2023-02-22T05:51:46;102385.56;;;6.44;100.00
5574;BME280;2563;52.242;7.956;2023-02-22T05:54:11;102379.63;;;6.45;100.00
5574;BME280;2563;52.242;7.956;2023-02-22T05:56:37;102381.38;;;6.48;100.00
5574;BME280;2563;52.242;7.956;2023-02-22T05:59:02;102380.53;;;6.49;100.00
5574;BME280;2563;52.242;7.956;2023-02-22T06:01:28;102374.56;;;6.48;100.00
5574;BME280;2563;52.242;7.956;2023-02-22T06:03:53;102374.56;;;6.48;100.00
5574;BME280;2563;52.242;7.956;2023-02-22T06:06:19;102374.56;;;6.48;100.00
5574;BME280;2563;52.242;7.956;2023-02-22T06:08:45;102370.31;;;6.49;100.00
5574;BME280;2563;52.242;7.956;2023-02-22T06:11:11;102368.47;;;6.43;100.00
5574;BME280;2563;52.242;7.956;2023-02-22T06:13:37;102372.63;;;6.38;100.00
5574;BME280;2563;52.242;7.956;2023-02-22T06:16:03;102368.38;;;6.37;100.00
5574;BME280;2563;52.242;7.956;2023-02-22T06:18:28;102371.72;;;6.36;100.00
5574;BME280;2563;52.242;7.956;2023-02-22T06:20:58;102379.34;;;6.33;100.00
5574;BME280;2563;52.242;7.956;2023-02-22T06:23:24;102371.63;;;6.31;100.00
5574;BME280;2563;52.242;7.956;2023-02-22T06:25:50;102373.38;;;6.32;100.00
5574;BME280;2563;52.242;7.956;2023-02-22T06:28:15;102378.44;;;6.31;100.00
5574;BME280;2563;52.242;7.956;2023-02-22T06:30:41;102379.22;;;6.28;100.00
5574;BME280;2563;52.242;7.956;2023-02-22T06:33:09;102380.94;;;6.28;100.00
5574;BME280;2563;52.242;7.956;2023-02-22T06:35:35;102372.41;;;6.29;100.00
5574;BME280;2563;52.242;7.956;2023-02-22T06:38:00;102368.22;;;6.31;100.00
5574;BME280;2563;52.242;7.956;2023-02-22T06:40:26;102362.19;;;6.29;100.00
5574;BME280;2563;52.242;7.956;2023-02-22T06:42:54;102357.94;;;6.29;100.00
5574;BME280;2563;52.242;7.956;2023-02-22T06:45:20;102362.19;;;6.29;100.00
5574;BME280;2563;52.242;7.956;2023-02-22T06:47:46;102365.59;;;6.29;100.00
5574;BME280;2563;52.242;7.956;2023-02-22T06:50:26;102357.00;;;6.26;100.00
5574;BME280;2563;52.242;7.956;2023-02-22T06:52:53;102357.00;;;6.26;100.00
5574;BME280;2563;52.242;7.956;2023-02-22T06:55:22;102358.72;;;6.27;100.00
5574;BME280;2563;52.242;7.956;2023-02-22T06:57:47;102355.28;;;6.25;100.00
5574;BME280;2563;52.242;7.956;2023-02-22T07:00:18;102362.03;;;6.21;100.00
5574;BME280;2563;52.242;7.956;2023-02-22T07:02:45;102355.22;;;6.22;100.00
5574;BME280;2563;52.242;7.956;2023-02-22T07:05:11;102346.78;;;6.26;100.00
5574;BME280;2563;52.242;7.956;2023-02-22T07:07:38;102341.72;;;6.29;100.00
5574;BME280;2563;52.242;7.956;2023-02-22T07:10:05;102333.25;;;6.31;100.00
5574;BME280;2563;52.242;7.956;2023-02-22T07:12:32;102328.28;;;6.37;100.00
5574;BME280;2563;52.242;7.956;2023-02-22T07:14:57;102318.97;;;6.39;100.00
5574;BME280;2563;52.242;7.956;2023-02-22T07:17:23;102304.59;;;6.46;100.00
5574;BME280;2563;52.242;7.956;2023-02-22T07:19:48;102292.78;;;6.51;100.00
5574;BME280;2563;52.242;7.956;2023-02-22T07:22:14;102291.94;;;6.52;100.00
5574;BME280;2563;52.242;7.956;2023-02-22T07:24:39;102284.34;;;6.57;100.00
5574;BME280;2563;52.242;7.956;2023-02-22T07:27:05;102270.81;;;6.61;100.00
5574;BME280;2563;52.242;7.956;2023-02-22T07:29:30;102263.19;;;6.64;100.00
5574;BME280;2563;52.242;7.956;2023-02-22T07:31:56;102253.94;;;6.71;100.00
5574;BME280;2563;52.242;7.956;2023-02-22T07:34:22;102247.16;;;6.73;100.00
5574;BME280;2563;52.242;7.956;2023-02-22T07:36:47;102252.19;;;6.70;100.00
5574;BME280;2563;52.242;7.956;2023-02-22T07:39:13;102238.50;;;6.68;100.00
5574;BME280;2563;52.242;7.956;2023-02-22T07:41:38;102237.59;;;6.64;100.00
5574;BME280;2563;52.242;7.956;2023-02-22T07:44:04;102221.56;;;6.73;100.00
5574;BME280;2563;52.242;7.956;2023-02-22T07:46:30;102212.22;;;6.76;100.00
5574;BME280;2563;52.242;7.956;2023-02-22T07:48:55;102197.88;;;6.85;100.00
5574;BME280;2563;52.242;7.956;2023-02-22T07:51:20;102195.34;;;6.86;100.00
5574;BME280;2563;52.242;7.956;2023-02-22T07:53:47;102193.63;;;6.87;100.00
5574;BME280;2563;52.242;7.956;2023-02-22T07:56:12;102183.59;;;6.97;100.00
5574;BME280;2563;52.242;7.956;2023-02-22T07:58:38;102182.88;;;7.05;100.00
5574;BME280;2563;52.242;7.956;2023-02-22T08:01:03;102171.81;;;7.07;100.00
5574;BME280;2563;52.242;7.956;2023-02-22T08:03:33;102182.00;;;7.04;100.00
5574;BME280;2563;52.242;7.956;2023-02-22T08:06:01;102165.16;;;7.18;100.00
5574;BME280;2563;52.242;7.956;2023-02-22T08:08:27;102156.00;;;7.33;100.00
5574;BME280;2563;52.242;7.956;2023-02-22T08:10:54;102136.59;;;7.52;100.00
5574;BME280;2563;52.242;7.956;2023-02-22T08:13:20;102103.44;;;7.61;100.00
5574;BME280;2563;52.242;7.956;2023-02-22T08:15:46;102078.00;;;7.76;100.00
5574;BME280;2563;52.242;7.956;2023-02-22T08:18:15;102044.00;;;7.94;100.00
5574;BME280;2563;52.242;7.956;2023-02-22T08:20:42;101998.88;;;8.07;100.00
5574;BME280;2563;52.242;7.956;2023-02-22T08:23:08;101970.75;;;8.19;100.00
5574;BME280;2563;52.242;7.956;2023-02-22T08:25:34;101959.72;;;8.29;100.00
5574;BME280;2563;52.242;7.956;2023-02-22T08:28:21;101936.81;;;8.48;100.00
5574;BME280;2563;52.242;7.956;2023-02-22T08:30:48;101927.38;;;8.47;100.00
5574;BME280;2563;52.242;7.956;2023-02-22T08:33:14;101940.25;;;8.50;100.00
5574;BME280;2563;52.242;7.956;2023-02-22T08:35:43;101931.78;;;8.66;100.00
5574;BME280;2563;52.242;7.956;2023-02-22T08:38:16;101924.16;;;8.80;100.00
5574;BME280;2563;52.242;7.956;2023-02-22T08:40:42;101928.44;;;8.86;100.00
5574;BME280;2563;52.242;7.956;2023-02-22T08:43:07;101924.25;;;9.02;100.00
5574;BME280;2563;52.242;7.956;2023-02-22T08:45:33;101937.09;;;9.02;100.00
5574;BME280;2563;52.242;7.956;2023-02-22T08:47:58;101959.34;;;8.97;100.00
5574;BME280;2563;52.242;7.956;2023-02-22T08:50:29;102019.16;;;8.80;100.00
5574;BME280;2563;52.242;7.956;2023-02-22T08:52:58;102061.91;;;8.78;100.00
5574;BME280;2563;52.242;7.956;2023-02-22T08:55:26;102118.50;;;8.89;100.00
5574;BME280;2563;52.242;7.956;2023-02-22T08:57:52;102169.09;;;9.02;100.00
5574;BME280;2563;52.242;7.956;2023-02-22T09:00:19;102194.97;;;9.22;100.00
5574;BME280;2563;52.242;7.956;2023-02-22T09:02:44;102242.19;;;9.35;100.00
5574;BME280;2563;52.242;7.956;2023-02-22T09:05:10;102302.22;;;9.43;100.00
5574;BME280;2563;52.242;7.956;2023-02-22T09:07:35;102386.34;;;9.58;100.00
5574;BME280;2563;52.242;7.956;2023-02-22T09:10:00;102480.69;;;9.67;100.00
5574;BME280;2563;52.242;7.956;2023-02-22T09:12:26;102540.84;;;9.81;100.00
5574;BME280;2563;52.242;7.956;2023-02-22T09:14:51;102628.41;;;9.87;100.00
5574;BME280;2563;52.242;7.956;2023-02-22T09:17:16;102662.06;;;10.04;100.00
5574;BME280;2563;52.242;7.956;2023-02-22T09:19:42;102683.00;;;10.33;100.00
5574;BME280;2563;52.242;7.956;2023-02-22T09:22:09;102714.13;;;10.55;100.00
5574;BME280;2563;52.242;7.956;2023-02-22T09:24:34;102721.75;;;10.46;100.00
5574;BME280;2563;52.242;7.956;2023-02-22T09:27:00;102731.41;;;10.63;100.00
5574;BME280;2563;52.242;7.956;2023-02-22T09:29:28;102715.38;;;10.94;100.00
5574;BME280;2563;52.242;7.956;2023-02-22T09:31:54;102727.25;;;10.76;100.00
5574;BME280;2563;52.242;7.956;2023-02-22T09:34:21;102740.28;;;10.93;100.00
5574;BME280;2563;52.242;7.956;2023-02-22T09:36:54;102724.00;;;10.97;100.00
5574;BME280;2563;52.242;7.956;2023-02-22T09:39:20;102706.84;;;11.01;100.00
5574;BME280;2563;52.242;7.956;2023-02-22T09:44:48;102582.72;;;11.82;100.00
5574;BME280;2563;52.242;7.956;2023-02-22T09:47:21;102514.72;;;11.64;100.00
5574;BME280;2563;52.242;7.956;2023-02-22T09:52:31;102294.56;;;11.78;100.00
5574;BME280;2563;52.242;7.956;2023-02-22T09:55:42;102107.09;;;11.89;100.00
5574;BME280;2563;52.242;7.956;2023-02-22T09:57:51;101781.13;;;11.90;100.00
5574;BME280;2563;52.242;7.956;2023-02-22T10:00:39;101396.81;;;11.81;100.00
5574;BME280;2563;52.242;7.956;2023-02-22T10:06:13;100642.16;;;12.63;100.00
5574;BME280;2563;52.242;7.956;2023-02-22T10:08:40;100370.78;;;12.69;100.00
5574;BME280;2563;52.242;7.956;2023-02-22T10:25:22;100457.47;;;13.25;100.00
5574;BME280;2563;52.242;7.956;2023-02-22T10:30:41;100549.16;;;13.39;100.00
5574;BME280;2563;52.242;7.956;2023-02-22T10:32:42;100546.41;;;13.19;100.00
5574;BME280;2563;52.242;7.956;2023-02-22T10:35:41;100537.53;;;12.76;100.00
5574;BME280;2563;52.242;7.956;2023-02-22T10:38:20;100520.09;;;12.58;100.00
5574;BME280;2563;52.242;7.956;2023-02-22T10:43:27;100480.06;;;12.44;100.00
5574;BME280;2563;52.242;7.956;2023-02-22T10:45:59;100474.88;;;12.46;100.00
5574;BME280;2563;52.242;7.956;2023-02-22T10:48:27;100486.00;;;12.48;100.00
5574;BME280;2563;52.242;7.956;2023-02-22T10:50:59;100387.94;;;12.46;100.00
5574;BME280;2563;52.242;7.956;2023-02-22T10:53:26;100352.44;;;12.76;100.00
5574;BME280;2563;52.242;7.956;2023-02-22T11:06:25;100321.22;;;12.83;100.00
5574;BME280;2563;52.242;7.956;2023-02-22T11:08:50;100273.69;;;12.65;100.00
5574;BME280;2563;52.242;7.956;2023-02-22T11:11:24;100233.25;;;12.64;100.00
5574;BME280;2563;52.242;7.956;2023-02-22T11:13:54;100229.09;;;13.05;100.00
5574;BME280;2563;52.242;7.956;2023-02-22T11:16:26;100211.47;;;13.37;100.00
5574;BME280;2563;52.242;7.956;2023-02-22T11:21:31;100022.59;;;13.40;100.00
5574;BME280;2563;52.242;7.956;2023-02-22T11:24:03;99949.03;;;13.28;100.00
5574;BME280;2563;52.242;7.956;2023-02-22T11:26:37;99876.00;;;13.23;100.00
5574;BME280;2563;52.242;7.956;2023-02-22T11:29:11;99868.63;;;13.34;100.00
5574;BME280;2563;52.242;7.956;2023-02-22T11:31:44;99818.47;;;13.38;100.00
5574;BME280;2563;52.242;7.956;2023-02-22T11:34:35;99691.75;;;13.21;100.00
5574;BME280;2563;52.242;7.956;2023-02-22T11:37:32;99724.50;;;13.57;100.00
5574;BME280;2563;52.242;7.956;2023-02-22T11:40:19;99740.47;;;13.82;100.00
5574;BME280;2563;52.242;7.956;2023-02-22T11:42:46;99742.19;;;13.99;100.00
5574;BME280;2563;52.242;7.956;2023-02-22T11:45:21;99755.91;;;14.35;100.00
5574;BME280;2563;52.242;7.956;2023-02-22T11:50:25;99660.44;;;14.29;100.00
5574;BME280;2563;52.242;7.956;2023-02-22T11:55:52;99565.47;;;14.45;100.00
5574;BME280;2563;52.242;7.956;2023-02-22T11:58:45;99614.91;;;14.24;100.00
5574;BME280;2563;52.242;7.956;2023-02-22T12:11:56;99468.84;;;14.44;100.00
5574;BME280;2563;52.242;7.956;2023-02-22T12:14:50;99455.28;;;14.55;100.00
5574;BME280;2563;52.242;7.956;2023-02-22T12:20:00;99401.66;;;14.57;100.00
5574;BME280;2563;52.242;7.956;2023-02-22T12:22:33;99354.75;;;14.47;100.00
5574;BME280;2563;52.242;7.956;2023-02-22T12:27:38;99291.25;;;14.56;100.00
5574;BME280;2563;52.242;7.956;2023-02-22T12:30:14;99321.47;;;15.26;100.00
5574;BME280;2563;52.242;7.956;2023-02-22T12:32:51;99301.59;;;15.39;100.00
5574;BME280;2563;52.242;7.956;2023-02-22T12:35:21;99286.03;;;15.66;100.00
5574;BME280;2563;52.242;7.956;2023-02-22T12:43:52;99286.75;;;16.21;100.00
5574;BME280;2563;52.242;7.956;2023-02-22T12:46:30;99273.97;;;15.92;100.00
5574;BME280;2563;52.242;7.956;2023-02-22T12:57:02;99328.69;;;16.41;100.00
5574;BME280;2563;52.242;7.956;2023-02-22T12:59:51;99340.63;;;16.30;100.00
5574;BME280;2563;52.242;7.956;2023-02-22T13:02:31;99355.59;;;16.40;100.00
5574;BME280;2563;52.242;7.956;2023-02-22T13:05:00;99362.44;;;16.28;100.00
5574;BME280;2563;52.242;7.956;2023-02-22T13:18:41;99837.28;;;15.27;100.00
5574;BME280;2563;52.242;7.956;2023-02-22T13:21:15;99880.13;;;15.19;100.00
5574;BME280;2563;52.242;7.956;2023-02-22T13:23:53;99923.59;;;15.14;100.00
5574;BME280;2563;52.242;7.956;2023-02-22T13:26:33;99952.53;;;15.22;100.00
5574;BME280;2563;52.242;7.956;2023-02-22T13:40:23;100202.00;;;14.92;100.00
5574;BME280;2563;52.242;7.956;2023-02-22T13:48:06;100192.78;;;14.67;100.00
5574;BME280;2563;52.242;7.956;2023-02-22T13:53:11;100288.94;;;14.61;100.00
5574;BME280;2563;52.242;7.956;2023-02-22T13:55:40;100180.97;;;14.62;100.00
5574;BME280;2563;52.242;7.956;2023-02-22T13:58:09;100204.34;;;14.60;100.00
5574;BME280;2563;52.242;7.956;2023-02-22T14:00:52;100238.94;;;14.59;100.00
5574;BME280;2563;52.242;7.956;2023-02-22T14:03:35;100218.22;;;14.59;100.00
5574;BME280;2563;52.242;7.956;2023-02-22T14:06:06;100211.75;;;14.30;100.00
5574;BME280;2563;52.242;7.956;2023-02-22T14:11:05;100228.75;;;14.36;100.00
5574;BME280;2563;52.242;7.956;2023-02-22T14:16:27;100265.16;;;14.33;100.00
5574;BME280;2563;52.242;7.956;2023-02-22T14:19:02;100268.44;;;14.36;100.00
5574;BME280;2563;52.242;7.956;2023-02-22T14:21:31;100264.91;;;14.18;100.00
5574;BME280;2563;52.242;7.956;2023-02-22T14:24:10;100255.25;;;14.22;100.00
5574;BME280;2563;52.242;7.956;2023-02-22T14:26:38;100254.28;;;14.24;100.00
5574;BME280;2563;52.242;7.956;2023-02-22T14:31:32;100241.56;;;14.39;100.00
5574;BME280;2563;52.242;7.956;2023-02-22T14:37:03;100236.94;;;14.26;100.00
5574;BME280;2563;52.242;7.956;2023-02-22T14:39:47;100247.91;;;14.32;100.00
5574;BME280;2563;52.242;7.956;2023-02-22T14:53:03;100240.84;;;14.16;100.00
5574;BME280;2563;52.242;7.956;2023-02-22T14:55:35;100237.28;;;14.19;100.00
5574;BME280;2563;52.242;7.956;2023-02-22T14:58:07;100242.28;;;14.03;100.00
5574;BME280;2563;52.242;7.956;2023-02-22T15:00:42;100250.56;;;13.91;100.00
5574;BME280;2563;52.242;7.956;2023-02-22T15:03:37;100250.25;;;13.78;100.00
5574;BME280;2563;52.242;7.956;2023-02-22T15:06:14;100250.66;;;13.69;100.00
5574;BME280;2563;52.242;7.956;2023-02-22T15:08:44;100254.19;;;13.66;100.00
5574;BME280;2563;52.242;7.956;2023-02-22T15:11:28;100256.09;;;13.63;100.00
5574;BME280;2563;52.242;7.956;2023-02-22T15:13:58;100253.50;;;13.63;100.00
5574;BME280;2563;52.242;7.956;2023-02-22T15:16:30;100256.28;;;13.58;100.00
5574;BME280;2563;52.242;7.956;2023-02-22T15:18:59;100254.19;;;13.46;100.00
5574;BME280;2563;52.242;7.956;2023-02-22T15:21:29;100265.47;;;13.43;100.00
5574;BME280;2563;52.242;7.956;2023-02-22T15:24:01;100260.56;;;13.37;100.00
5574;BME280;2563;52.242;7.956;2023-02-22T15:26:46;100260.09;;;13.27;100.00
5574;BME280;2563;52.242;7.956;2023-02-22T15:31:45;100265.97;;;13.09;100.00
5574;BME280;2563;52.242;7.956;2023-02-22T15:36:36;100268.84;;;13.01;100.00
5574;BME280;2563;52.242;7.956;2023-02-22T15:39:02;100269.25;;;12.90;100.00
5574;BME280;2563;52.242;7.956;2023-02-22T15:41:34;100277.13;;;12.87;100.00
5574;BME280;2563;52.242;7.956;2023-02-22T15:44:03;100281.63;;;12.82;100.00
5574;BME280;2563;52.242;7.956;2023-02-22T15:46:29;100285.28;;;12.76;100.00
5574;BME280;2563;52.242;7.956;2023-02-22T15:51:38;100285.91;;;12.60;100.00
5574;BME280;2563;52.242;7.956;2023-02-22T15:54:05;100281.00;;;12.52;100.00
5574;BME280;2563;52.242;7.956;2023-02-22T15:56:34;100263.22;;;12.44;100.00
5574;BME280;2563;52.242;7.956;2023-02-22T15:59:14;100251.56;;;12.34;100.00
5574;BME280;2563;52.242;7.956;2023-02-22T16:01:44;100244.69;;;12.33;100.00
5574;BME280;2563;52.242;7.956;2023-02-22T16:04:19;100229.34;;;12.30;100.00
5574;BME280;2563;52.242;7.956;2023-02-22T16:06:46;100226.94;;;12.25;100.00
5574;BME280;2563;52.242;7.956;2023-02-22T16:09:23;100221.16;;;12.19;100.00
5574;BME280;2563;52.242;7.956;2023-02-22T16:11:51;100221.38;;;12.12;100.00
5574;BME280;2563;52.242;7.956;2023-02-22T16:19:40;100201.69;;;11.85;100.00